Terminal Aerodrome Forecast
Issued by NWS

Home | Current Version | Previous Version | Text Only | Print | Product List | Glossary On
Versions: 1 2 3 4 5 6 7 8 9 10 11 12 13 14 15 16 17 18
000
FTUS45 KABQ 311740
TAFLVS
TAF
KLVS 311740Z 3118/0118 16009KT P6SM VCSH SCT030 BKN050
     FM311930 14010G16KT P6SM VCSH SCT045 BKN070
      TEMPO 3120/3124 VRB16G27KT 5SM TSRA BKN035CB OVC090
     FM010000 15010KT P6SM VCSH SCT045 BKN070
     FM010300 12006KT P6SM SCT040 BKN090
     FM010900 VRB05KT P6SM SCT020 BKN030=

USA.gov is the U.S. government's official web portal to all federal, state and local government web resources and services.